createdAt,value
2018-05-27T00:00:28.822Z,88.1
2018-05-27T00:05:28.821Z,88.5
2018-05-27T00:10:28.992Z,87
2018-05-27T00:15:29.288Z,88.7
2018-05-27T00:20:28.841Z,88.6
2018-05-27T00:25:29.017Z,89.5
2018-05-27T00:30:41.366Z,89.3
2018-05-27T00:35:41.140Z,88.1
2018-05-27T00:40:40.946Z,88.3
2018-05-27T00:45:41.098Z,88.8
2018-05-27T00:50:41.143Z,89.1
2018-05-27T00:55:40.957Z,90.2
2018-05-27T01:00:41.095Z,89.8
2018-05-27T01:05:45.275Z,89.9
2018-05-27T01:10:45.180Z,90.4
2018-05-27T01:15:55.527Z,90.6
2018-05-27T01:20:55.386Z,90.4
2018-05-27T01:25:55.140Z,90.9
2018-05-27T01:30:55.398Z,90.7
2018-05-27T01:35:55.277Z,89.3
2018-05-27T01:40:55.253Z,89.8
2018-05-27T01:45:55.237Z,90.1
2018-05-27T01:50:56.734Z,90
2018-05-27T01:55:56.950Z,89.7
2018-05-27T02:01:08.586Z,89.8
2018-05-27T02:06:08.415Z,90.4
2018-05-27T02:11:08.648Z,89.5
2018-05-27T02:16:08.441Z,90.5
2018-05-27T02:21:08.318Z,90.6
2018-05-27T02:26:08.341Z,89.2
2018-05-27T02:31:08.455Z,90.7
2018-05-27T02:36:12.599Z,91.3
2018-05-27T02:41:12.506Z,91.4
2018-05-27T02:46:24.466Z,92.6
2018-05-27T02:51:24.346Z,92.2
2018-05-27T02:56:24.201Z,92.5
2018-05-27T03:01:24.314Z,90.9
2018-05-27T03:06:24.219Z,92.1
2018-05-27T03:11:24.384Z,92.3
2018-05-27T03:16:24.419Z,92.5
2018-05-27T03:21:26.044Z,91.7
2018-05-27T03:26:25.737Z,91
2018-05-27T03:31:38.547Z,91.7
2018-05-27T03:36:38.742Z,92.4
2018-05-27T03:41:38.524Z,92.2
2018-05-27T03:46:38.452Z,91
2018-05-27T03:51:38.296Z,91.4
2018-05-27T03:56:38.530Z,92.3
2018-05-27T04:01:39.572Z,92.4
2018-05-27T04:06:38.811Z,92
2018-05-27T04:11:38.484Z,93.3
2018-05-27T04:16:50.593Z,91.8
2018-05-27T04:21:50.445Z,90.1
2018-05-27T04:26:50.483Z,88.4
2018-05-27T04:31:50.640Z,87.5
2018-05-27T04:36:50.477Z,87.8
2018-05-27T04:41:50.381Z,87.8
2018-05-27T04:46:50.907Z,87.2
2018-05-27T04:51:50.728Z,87.3
2018-05-27T04:56:50.614Z,86.4
2018-05-27T05:02:04.116Z,85.7
2018-05-27T05:07:03.689Z,86.8
2018-05-27T05:12:03.729Z,84.9
2018-05-27T05:17:03.661Z,86
2018-05-27T05:22:03.905Z,83.5
2018-05-27T05:27:03.466Z,83.5
2018-05-27T05:32:04.125Z,82.8
2018-05-27T05:37:04.416Z,82.8
2018-05-27T05:42:04.351Z,80.2
2018-05-27T05:47:16.477Z,81.2
2018-05-27T05:52:16.627Z,84.5
2018-05-27T05:57:16.623Z,83.7
2018-05-27T06:02:16.552Z,82.5
2018-05-27T06:07:16.317Z,79.4
2018-05-27T06:12:16.228Z,77.8
2018-05-27T06:17:16.216Z,77.4
2018-05-27T06:22:17.247Z,77
2018-05-27T06:27:16.745Z,76.3
2018-05-27T06:32:16.848Z,76.3
2018-05-27T06:37:16.769Z,75
2018-05-27T06:42:17.300Z,73
2018-05-27T06:47:18.004Z,72.1
2018-05-27T06:52:16.861Z,70.3
2018-05-27T06:57:28.930Z,67.8
2018-05-27T07:02:28.643Z,70
2018-05-27T07:07:28.640Z,66.5
2018-05-27T07:12:28.673Z,67.5
2018-05-27T07:17:30.006Z,65.2
2018-05-27T07:22:28.744Z,63.6
2018-05-27T07:27:28.923Z,64.3
2018-05-27T07:32:31.557Z,65.2
2018-05-27T07:37:30.935Z,63.3
2018-05-27T07:42:43.428Z,63
2018-05-27T07:47:43.813Z,61.1
2018-05-27T07:52:43.187Z,60.8
2018-05-27T07:57:43.216Z,62.3
2018-05-27T08:02:43.354Z,61.7
2018-05-27T08:07:43.409Z,57.9
2018-05-27T08:12:43.614Z,58
2018-05-27T08:17:43.379Z,57.6
2018-05-27T08:22:43.386Z,57.7
2018-05-27T08:27:55.501Z,56.2
2018-05-27T08:32:54.756Z,56.5
2018-05-27T08:37:54.776Z,55.3
2018-05-27T08:42:54.787Z,55.9
2018-05-27T08:47:55.023Z,56.1
2018-05-27T08:52:55.046Z,54.2
2018-05-27T08:57:55.050Z,53.4
2018-05-27T09:02:55.046Z,52.6
2018-05-27T09:07:55.035Z,52.6
2018-05-27T09:13:07.226Z,52.7
2018-05-27T09:18:07.038Z,52
2018-05-27T09:23:07.333Z,51.5
2018-05-27T09:28:07.151Z,51.4
2018-05-27T09:33:07.050Z,49.8
2018-05-27T09:38:07.053Z,50.4
2018-05-27T09:43:07.156Z,49.6
2018-05-27T09:48:07.722Z,49.6
2018-05-27T09:53:07.909Z,49.1
2018-05-27T09:58:21.671Z,49.2
2018-05-27T10:03:22.242Z,49.5
2018-05-27T10:08:21.629Z,49.3
2018-05-27T10:13:21.499Z,48.2
2018-05-27T10:18:21.688Z,48.4
2018-05-27T10:23:21.472Z,46.9
2018-05-27T10:28:21.624Z,47.1
2018-05-27T10:33:21.899Z,46.4
2018-05-27T10:38:21.511Z,45.9
2018-05-27T10:43:21.624Z,44.6
2018-05-27T10:48:21.681Z,45.1
2018-05-27T10:53:21.542Z,43.2
2018-05-27T10:58:22.525Z,45.9
2018-05-27T11:03:22.008Z,44.9
2018-05-27T11:08:34.689Z,43.9
2018-05-27T11:13:34.541Z,47.5
2018-05-27T11:18:34.566Z,44.9
2018-05-27T11:23:34.594Z,44.6
2018-05-27T11:28:34.691Z,42.5
2018-05-27T11:33:34.423Z,42.2
2018-05-27T11:38:34.640Z,41.9
2018-05-27T11:43:40.684Z,42.7
2018-05-27T11:48:39.814Z,42.3
2018-05-27T11:53:52.435Z,42.3
2018-05-27T11:58:52.613Z,41.9
2018-05-27T12:03:53.168Z,43.6
2018-05-27T12:08:52.363Z,42.9
2018-05-27T12:13:52.393Z,42.7
2018-05-27T12:18:52.292Z,44.1
2018-05-27T12:23:52.378Z,41.1
2018-05-27T12:28:52.999Z,42.6
2018-05-27T12:33:52.716Z,43.7
2018-05-27T12:39:05.936Z,43.9
2018-05-27T12:44:05.472Z,43.9
2018-05-27T12:49:06.783Z,46.6
2018-05-27T12:54:05.808Z,48.5
2018-05-27T12:59:05.599Z,49.7
2018-05-27T13:04:05.728Z,48.5
2018-05-27T13:09:05.509Z,48.9
2018-05-27T13:14:10.040Z,47.2
2018-05-27T13:19:09.969Z,47.3
2018-05-27T13:24:19.652Z,49
2018-05-27T13:29:19.290Z,51
2018-05-27T13:34:19.806Z,52.7
2018-05-27T13:39:20.039Z,52.3
2018-05-27T13:44:20.892Z,53.8
2018-05-27T13:49:19.936Z,53.9
2018-05-27T13:54:19.500Z,54.2
2018-05-27T13:59:21.252Z,56
2018-05-27T14:04:21.189Z,56.5
2018-05-27T14:09:34.240Z,55.7
2018-05-27T14:14:34.182Z,56.2
2018-05-27T14:19:33.959Z,57.4
2018-05-27T14:24:34.097Z,57.6
2018-05-27T14:29:34.184Z,57.1
2018-05-27T14:34:33.951Z,56.8
2018-05-27T14:39:34.109Z,56.9
2018-05-27T14:44:37.555Z,56.9
2018-05-27T14:49:36.327Z,56.7
2018-05-27T14:54:48.826Z,57.2
2018-05-27T14:59:48.520Z,56.8
2018-05-27T15:04:51.710Z,56.9
2018-05-27T15:09:48.580Z,57.9
2018-05-27T15:14:48.866Z,57.9
2018-05-27T15:19:48.603Z,58.1
2018-05-27T15:24:48.828Z,57.9
2018-05-27T15:29:48.571Z,58.6
2018-05-27T15:34:50.254Z,59.1
2018-05-27T15:39:48.685Z,59.1
2018-05-27T15:44:48.563Z,60
2018-05-27T15:49:48.774Z,60.7
2018-05-27T15:54:49.312Z,61
2018-05-27T15:59:49.402Z,61.3
2018-05-27T16:05:02.376Z,61.3
2018-05-27T16:10:02.106Z,61.4
2018-05-27T16:15:02.086Z,61.8
2018-05-27T16:20:02.147Z,62.1
2018-05-27T16:25:02.103Z,62.6
2018-05-27T16:30:02.273Z,62.6
2018-05-27T16:35:02.251Z,62
2018-05-27T16:40:05.208Z,62
2018-05-27T16:45:04.885Z,62.5
2018-05-27T16:50:15.341Z,63.3
2018-05-27T16:55:15.846Z,63.5
2018-05-27T17:00:15.235Z,62.7
2018-05-27T17:05:14.970Z,63.7
2018-05-27T17:10:14.966Z,63.5
2018-05-27T17:15:15.362Z,64
2018-05-27T17:20:15.180Z,64.7
2018-05-27T17:25:15.460Z,64.4
2018-05-27T17:30:15.170Z,63.5
2018-05-27T17:35:27.184Z,63.1
2018-05-27T17:40:26.712Z,64
2018-05-27T17:45:26.687Z,63.5
2018-05-27T17:50:26.667Z,63.6
2018-05-27T17:55:26.872Z,64
2018-05-27T18:00:26.645Z,64.3
2018-05-27T18:05:26.669Z,63.6
2018-05-27T18:10:28.913Z,64.5
2018-05-27T18:15:28.385Z,64.4
2018-05-27T18:20:40.952Z,64.1
2018-05-27T18:25:40.910Z,65.3
2018-05-27T18:30:40.667Z,65.7
2018-05-27T18:35:40.696Z,66.4
2018-05-27T18:40:41.136Z,67.4
2018-05-27T18:45:40.989Z,67.8
2018-05-27T18:50:40.679Z,67.8
2018-05-27T18:55:40.976Z,68.4
2018-05-27T19:00:41.153Z,69.5
2018-05-27T19:05:53.371Z,69.5
2018-05-27T19:10:53.304Z,70
2018-05-27T19:15:53.068Z,71.2
2018-05-27T19:20:53.481Z,70.9
2018-05-27T19:25:53.332Z,72.1
2018-05-27T19:30:53.084Z,71.2
2018-05-27T19:35:53.094Z,72.9
2018-05-27T19:40:54.926Z,72.9
2018-05-27T19:45:55.333Z,73.2
2018-05-27T19:51:13.184Z,73.8
2018-05-27T19:56:08.946Z,74
2018-05-27T20:01:08.991Z,74
2018-05-27T20:06:09.197Z,75.1
2018-05-27T20:11:09.199Z,77.3
2018-05-27T20:16:08.993Z,76.3
2018-05-27T20:21:09.269Z,76.8
2018-05-27T20:26:09.872Z,80.2
2018-05-27T20:31:09.814Z,79.5
2018-05-27T20:36:22.142Z,78.2
2018-05-27T20:41:22.051Z,79.3
2018-05-27T20:46:22.512Z,79
2018-05-27T20:51:22.039Z,81.2
2018-05-27T20:56:23.477Z,80.3
2018-05-27T21:01:21.847Z,80.6
2018-05-27T21:06:21.883Z,80.5
2018-05-27T21:11:24.919Z,82.8
2018-05-27T21:16:24.752Z,82.3
2018-05-27T21:21:37.141Z,83.7
2018-05-27T21:26:36.775Z,84.4
2018-05-27T21:31:37.048Z,84
2018-05-27T21:36:36.649Z,83.2
2018-05-27T21:41:37.159Z,84.4
2018-05-27T21:46:36.621Z,84.1
2018-05-27T21:51:37.738Z,84.5
2018-05-27T21:56:39.804Z,84.4
2018-05-27T22:01:39.685Z,85.8
2018-05-27T22:06:52.090Z,85.4
2018-05-27T22:11:52.039Z,85.4
2018-05-27T22:16:51.968Z,86.9
2018-05-27T22:21:52.248Z,86.6
2018-05-27T22:26:51.818Z,85.3
2018-05-27T22:31:52.969Z,86.3
2018-05-27T22:36:52.084Z,85.8
2018-05-27T22:41:52.616Z,86.2
2018-05-27T22:46:52.464Z,86.2
2018-05-27T22:52:05.439Z,86.9
2018-05-27T22:57:05.350Z,86.6
2018-05-27T23:02:05.166Z,85.2
2018-05-27T23:07:05.318Z,84.9
2018-05-27T23:12:05.619Z,84.4
2018-05-27T23:17:05.181Z,84.8
2018-05-27T23:22:05.351Z,85
2018-05-27T23:27:05.375Z,84.8
2018-05-27T23:32:05.307Z,84.8
2018-05-27T23:37:05.483Z,85.9
2018-05-27T23:42:05.304Z,85.9
2018-05-27T23:47:05.642Z,85.2
2018-05-27T23:52:06.749Z,85.6
2018-05-27T23:57:07.768Z,85.2
